createdAt,value
2023-01-11T00:04:31.836Z,14.98
2023-01-11T00:07:04.357Z,20.98
2023-01-11T00:09:33.111Z,12.55
2023-01-11T00:12:08.060Z,16.65
2023-01-11T00:14:36.220Z,15.75
2023-01-11T00:17:03.751Z,13.85
2023-01-11T00:19:31.525Z,20.83
2023-01-11T00:21:59.148Z,20.35
2023-01-11T00:24:27.241Z,18.88
2023-01-11T00:26:55.092Z,17.80
2023-01-11T00:29:22.810Z,21.80
2023-01-11T00:31:50.483Z,22.95
2023-01-11T00:34:18.395Z,14.05
2023-01-11T00:36:45.986Z,19.42
2023-01-11T00:39:14.126Z,16.35
2023-01-11T00:42:00.147Z,16.73
2023-01-11T00:44:45.854Z,21.17
2023-01-11T00:47:36.138Z,18.48
2023-01-11T00:50:04.580Z,15.25
2023-01-11T00:52:31.911Z,13.80
2023-01-11T00:54:59.623Z,16.48
2023-01-11T00:57:27.186Z,17.25
2023-01-11T00:59:54.552Z,16.83
2023-01-11T01:02:22.757Z,13.15
2023-01-11T01:04:50.364Z,12.82
2023-01-11T01:07:17.931Z,16.38
2023-01-11T01:09:45.848Z,14.48
2023-01-11T01:12:34.621Z,12.25
2023-01-11T01:15:03.246Z,15.88
2023-01-11T01:17:41.461Z,14.93
2023-01-11T01:20:11.422Z,15.27
2023-01-11T01:25:24.365Z,12.43
2023-01-11T01:27:53.297Z,10.63
2023-01-11T01:30:23.211Z,15.75
2023-01-11T01:32:51.092Z,12.75
2023-01-11T01:35:19.686Z,11.32
2023-01-11T01:37:51.334Z,13.27
2023-01-11T01:40:20.064Z,16.33
2023-01-11T01:43:00.467Z,12.70
2023-01-11T01:45:29.206Z,14.25
2023-01-11T01:48:02.212Z,12.07
2023-01-11T01:50:34.627Z,11.98
2023-01-11T01:53:12.815Z,11.43
2023-01-11T01:55:44.590Z,16.25
2023-01-11T01:58:16.150Z,14.32
2023-01-11T02:00:45.539Z,13.73
2023-01-11T02:03:20.113Z,12.10
2023-01-11T02:05:48.608Z,12.70
2023-01-11T02:08:31.482Z,10.07
2023-01-11T02:11:01.385Z,13.63
2023-01-11T02:13:29.988Z,13.00
2023-01-11T02:16:10.002Z,19.02
2023-01-11T02:18:38.632Z,15.05
2023-01-11T02:21:31.168Z,11.55
2023-01-11T02:24:19.996Z,13.73
2023-01-11T02:26:47.478Z,11.73
2023-01-11T02:29:51.429Z,11.73
2023-01-11T02:32:35.130Z,14.93
2023-01-11T02:35:21.787Z,8.80
2023-01-11T02:38:19.688Z,9.00
2023-01-11T02:40:54.857Z,9.50
2023-01-11T02:43:45.982Z,11.25
2023-01-11T02:46:37.584Z,7.53
2023-01-11T02:49:35.472Z,10.40
2023-01-11T02:52:19.490Z,9.80
2023-01-11T02:54:54.323Z,5.85
2023-01-11T02:57:32.926Z,9.80
2023-01-11T03:00:01.808Z,6.30
2023-01-11T03:02:31.698Z,11.30
2023-01-11T03:04:59.606Z,12.02
2023-01-11T03:07:44.438Z,11.65
2023-01-11T03:10:33.738Z,12.32
2023-01-11T03:13:13.296Z,13.55
2023-01-11T03:16:05.244Z,12.55
2023-01-11T03:19:16.800Z,11.48
2023-01-11T03:21:52.048Z,10.70
2023-01-11T03:24:26.093Z,10.52
2023-01-11T03:27:32.484Z,12.27
2023-01-11T03:30:08.118Z,11.15
2023-01-11T03:33:01.275Z,12.63
2023-01-11T03:35:43.441Z,13.75
2023-01-11T03:38:31.018Z,15.53
2023-01-11T03:41:06.290Z,12.95
2023-01-11T03:43:36.708Z,13.45
2023-01-11T03:46:09.717Z,13.25
2023-01-11T03:48:52.534Z,15.27
2023-01-11T03:51:29.267Z,16.02
2023-01-11T03:54:10.880Z,18.33
2023-01-11T03:57:05.574Z,18.88
2023-01-11T03:59:34.222Z,16.98
2023-01-11T04:02:02.475Z,13.13
2023-01-11T04:04:30.328Z,16.80
2023-01-11T04:06:58.083Z,16.25
2023-01-11T04:09:25.707Z,15.38
2023-01-11T04:11:54.315Z,15.63
2023-01-11T04:14:22.616Z,17.60
2023-01-11T04:16:50.155Z,19.20
2023-01-11T04:19:20.741Z,26.80
2023-01-11T04:21:48.295Z,17.70
2023-01-11T04:24:17.083Z,17.45
2023-01-11T04:26:45.319Z,20.23
2023-01-11T04:29:13.098Z,21.33
2023-01-11T04:31:43.980Z,20.38
2023-01-11T04:34:12.596Z,25.67
2023-01-11T04:36:40.017Z,18.88
2023-01-11T04:39:10.863Z,24.05
2023-01-11T04:41:57.671Z,21.33
2023-01-11T04:44:25.602Z,29.45
2023-01-11T04:46:54.401Z,27.13
2023-01-11T04:49:22.758Z,29.77
2023-01-11T04:51:51.023Z,30.85
2023-01-11T04:54:18.842Z,28.00
2023-01-11T04:56:47.585Z,32.83
2023-01-11T04:59:24.202Z,36.35
2023-01-11T05:01:52.252Z,32.65
2023-01-11T05:04:20.167Z,35.47
2023-01-11T05:06:49.792Z,35.42
2023-01-11T05:09:18.812Z,36.20
2023-01-11T05:11:46.739Z,45.75
2023-01-11T05:14:15.243Z,41.35
2023-01-11T05:16:43.245Z,41.15
2023-01-11T05:19:12.137Z,37.10
2023-01-11T05:21:41.650Z,34.15
2023-01-11T05:24:13.695Z,38.65
2023-01-11T05:26:43.412Z,35.07
2023-01-11T05:29:14.567Z,40.47
2023-01-11T05:31:42.188Z,35.53
2023-01-11T05:34:12.000Z,38.92
2023-01-11T05:36:39.970Z,32.70
2023-01-11T05:39:08.044Z,39.42
2023-01-11T05:41:36.631Z,31.13
2023-01-11T05:44:23.142Z,38.88
2023-01-11T05:46:52.011Z,30.80
2023-01-11T05:49:19.677Z,34.75
2023-01-11T05:51:48.951Z,31.00
2023-01-11T05:54:16.875Z,24.63
2023-01-11T05:56:44.480Z,29.15
2023-01-11T05:59:12.503Z,32.00
2023-01-11T06:01:40.192Z,28.90
2023-01-11T06:04:08.812Z,22.63
2023-01-11T06:06:36.435Z,33.25
2023-01-11T06:09:03.999Z,32.55
2023-01-11T06:11:31.437Z,30.40
2023-01-11T06:13:58.946Z,26.63
2023-01-11T06:16:26.692Z,27.42
2023-01-11T06:18:54.417Z,28.17
2023-01-11T06:21:22.279Z,30.63
2023-01-11T06:23:51.181Z,25.00
2023-01-11T06:26:21.395Z,32.63
2023-01-11T06:28:49.234Z,29.25
2023-01-11T06:31:17.960Z,23.70
2023-01-11T06:33:48.683Z,25.73
2023-01-11T06:36:17.303Z,33.20
2023-01-11T06:38:45.106Z,23.83
2023-01-11T06:41:13.545Z,23.50
2023-01-11T06:43:42.531Z,30.00
2023-01-11T06:46:14.505Z,25.92
2023-01-11T06:48:42.702Z,29.53
2023-01-11T06:51:13.299Z,26.73
2023-01-11T06:53:43.407Z,25.75
2023-01-11T06:56:18.935Z,30.80
2023-01-11T06:58:47.633Z,30.15
2023-01-11T07:01:15.743Z,28.30
2023-01-11T07:03:45.497Z,33.13
2023-01-11T07:06:13.914Z,34.50
2023-01-11T07:08:42.626Z,30.38
2023-01-11T07:11:10.187Z,29.65
2023-01-11T07:13:38.613Z,30.25
2023-01-11T07:16:06.488Z,31.65
2023-01-11T07:18:34.093Z,36.85
2023-01-11T07:21:02.524Z,31.58
2023-01-11T07:23:29.978Z,27.13
2023-01-11T07:25:57.494Z,30.42
2023-01-11T07:28:24.959Z,34.05
2023-01-11T07:30:58.658Z,28.38
2023-01-11T07:33:27.235Z,28.35
2023-01-11T07:35:55.017Z,32.17
2023-01-11T07:38:22.587Z,30.55
2023-01-11T07:40:50.038Z,36.40
2023-01-11T07:43:23.237Z,24.60
2023-01-11T07:45:52.204Z,33.83
2023-01-11T07:48:25.142Z,34.17
2023-01-11T07:50:53.268Z,32.22
2023-01-11T07:53:21.167Z,30.27
2023-01-11T07:55:48.666Z,29.38
2023-01-11T07:58:16.314Z,28.23
2023-01-11T08:00:46.493Z,32.20
2023-01-11T08:03:14.219Z,36.70
2023-01-11T08:05:42.963Z,34.45
2023-01-11T08:08:10.461Z,29.13
2023-01-11T08:10:39.732Z,33.65
2023-01-11T08:13:32.115Z,28.88
2023-01-11T08:16:00.332Z,34.38
2023-01-11T08:18:27.834Z,28.90
2023-01-11T08:20:55.243Z,37.08
2023-01-11T08:23:22.616Z,31.15
2023-01-11T08:25:50.112Z,38.10
2023-01-11T08:28:17.788Z,30.75
2023-01-11T08:30:45.338Z,35.20
2023-01-11T08:33:12.685Z,32.90
2023-01-11T08:35:40.607Z,28.42
2023-01-11T08:38:08.577Z,29.88
2023-01-11T08:40:36.244Z,35.47
2023-01-11T08:43:03.948Z,35.38
2023-01-11T08:45:31.409Z,42.05
2023-01-11T08:48:00.496Z,35.17
2023-01-11T08:50:27.982Z,35.92
2023-01-11T08:52:55.380Z,33.55
2023-01-11T08:55:22.760Z,37.15
2023-01-11T08:57:50.509Z,40.00
2023-01-11T09:00:18.643Z,33.80
2023-01-11T09:02:46.158Z,38.45
2023-01-11T09:05:14.398Z,37.15
2023-01-11T09:07:42.905Z,33.72
2023-01-11T09:10:10.778Z,30.45
2023-01-11T09:12:38.212Z,33.65
2023-01-11T09:15:06.264Z,41.35
2023-01-11T09:17:35.221Z,33.70
2023-01-11T09:20:02.905Z,35.30
2023-01-11T09:22:30.604Z,33.20
2023-01-11T09:25:00.207Z,38.50
2023-01-11T09:27:27.804Z,37.47
2023-01-11T09:29:55.360Z,33.75
2023-01-11T09:32:23.180Z,27.50
2023-01-11T09:34:53.530Z,28.55
2023-01-11T09:37:23.935Z,26.55
2023-01-11T09:39:52.663Z,29.02
2023-01-11T09:42:35.023Z,30.17
2023-01-11T09:45:09.771Z,30.35
2023-01-11T09:48:03.859Z,35.08
2023-01-11T09:50:33.969Z,39.15
2023-01-11T09:53:07.890Z,31.65
2023-01-11T09:55:42.592Z,39.85
2023-01-11T09:58:18.521Z,30.45
2023-01-11T10:01:01.101Z,34.83
2023-01-11T10:03:48.937Z,27.17
2023-01-11T10:06:18.602Z,33.97
2023-01-11T10:18:32.893Z,26.00
2023-01-11T10:18:49.403Z,28.85
2023-01-11T10:21:26.588Z,26.70
2023-01-11T10:24:12.441Z,31.27
2023-01-11T10:26:41.561Z,32.20
2023-01-11T10:29:18.623Z,28.75
2023-01-11T10:31:59.791Z,34.10
2023-01-11T10:34:42.821Z,28.90
2023-01-11T10:37:34.478Z,26.63
2023-01-11T10:40:26.871Z,36.25
2023-01-11T10:43:04.619Z,26.00
2023-01-11T10:45:51.499Z,28.65
2023-01-11T10:48:25.418Z,28.33
2023-01-11T10:50:58.400Z,27.75
2023-01-11T10:56:07.214Z,28.60
2023-01-11T10:58:50.696Z,37.22
2023-01-11T11:01:48.936Z,34.00
2023-01-11T11:04:37.156Z,26.20
2023-01-11T11:07:23.146Z,35.05
2023-01-11T11:10:15.159Z,34.28
2023-01-11T11:13:05.722Z,31.50
2023-01-11T11:15:41.641Z,28.95
2023-01-11T11:18:09.098Z,31.90
2023-01-11T11:20:36.476Z,32.17
2023-01-11T11:23:04.259Z,32.63
2023-01-11T11:25:39.764Z,35.20
2023-01-11T11:28:25.453Z,32.35
2023-01-11T11:30:57.714Z,35.95
2023-01-11T11:33:36.878Z,34.40
2023-01-11T11:36:11.609Z,36.60
2023-01-11T11:38:59.036Z,33.47
2023-01-11T11:41:26.403Z,36.35
2023-01-11T11:44:15.968Z,38.80
2023-01-11T11:46:58.024Z,31.27
2023-01-11T11:49:25.396Z,33.28
2023-01-11T11:51:53.484Z,37.45
2023-01-11T11:54:57.097Z,45.40
2023-01-11T12:00:28.491Z,29.27
2023-01-11T12:03:20.511Z,34.85
2023-01-11T12:06:01.165Z,35.25
2023-01-11T12:08:30.133Z,31.02
2023-01-11T12:11:00.462Z,34.28
2023-01-11T12:13:30.705Z,29.67
2023-01-11T12:16:00.735Z,34.03
2023-01-11T12:18:41.539Z,34.83
2023-01-11T12:21:24.094Z,37.70
2023-01-11T12:24:17.388Z,37.30
2023-01-11T12:29:48.404Z,26.65
2023-01-11T12:32:18.563Z,32.28
2023-01-11T12:35:05.909Z,26.15
2023-01-11T12:37:36.181Z,31.40
2023-01-11T12:40:25.185Z,33.10
2023-01-11T12:43:08.877Z,35.15
2023-01-11T12:45:55.165Z,36.10
2023-01-11T12:49:01.313Z,27.23
2023-01-11T12:51:31.481Z,32.80
2023-01-11T12:54:16.613Z,37.83
2023-01-11T12:56:53.455Z,30.13
2023-01-11T12:59:23.679Z,35.03
2023-01-11T13:02:15.475Z,37.72
2023-01-11T13:05:13.147Z,42.90
2023-01-11T13:08:10.172Z,44.25
2023-01-11T13:10:50.716Z,35.13
2023-01-11T13:13:20.940Z,37.97
2023-01-11T13:16:14.214Z,42.78
2023-01-11T13:18:59.225Z,35.55
2023-01-11T13:21:33.445Z,44.25
2023-01-11T13:24:10.995Z,36.85
2023-01-11T13:26:49.062Z,40.60
2023-01-11T13:29:33.222Z,36.95
2023-01-11T13:32:04.207Z,38.28
2023-01-11T13:34:52.130Z,32.95
2023-01-11T13:37:48.302Z,35.67
2023-01-11T13:40:38.925Z,42.20
2023-01-11T13:43:23.001Z,40.35
2023-01-11T13:46:04.184Z,42.22
2023-01-11T13:49:00.693Z,38.30
2023-01-11T13:52:17.797Z,37.13
2023-01-11T13:55:14.417Z,38.13
2023-01-11T13:58:29.020Z,38.75
2023-01-11T14:01:07.616Z,39.22
2023-01-11T14:03:47.502Z,34.80
2023-01-11T14:06:31.884Z,31.27
2023-01-11T14:09:02.478Z,31.23
2023-01-11T14:11:38.912Z,39.97
2023-01-11T14:14:18.412Z,33.20
2023-01-11T14:17:20.819Z,30.80
2023-01-11T14:20:15.594Z,33.40
2023-01-11T14:22:51.753Z,28.85
2023-01-11T14:25:30.965Z,34.97
2023-01-11T14:28:04.326Z,28.85
2023-01-11T14:30:55.089Z,34.72
2023-01-11T14:33:44.392Z,28.55
2023-01-11T14:36:37.935Z,26.88
2023-01-11T14:39:42.874Z,31.40
2023-01-11T14:42:35.086Z,31.38
2023-01-11T14:45:21.557Z,25.85
2023-01-11T14:48:18.251Z,32.38
2023-01-11T14:50:57.366Z,26.90
2023-01-11T14:53:29.187Z,32.85
2023-01-11T14:55:56.532Z,22.40
2023-01-11T14:58:31.769Z,28.23
2023-01-11T15:00:59.116Z,29.20
2023-01-11T15:03:35.107Z,25.02
2023-01-11T15:06:14.822Z,26.23
2023-01-11T15:08:47.801Z,33.95
2023-01-11T15:14:21.361Z,27.85
2023-01-11T15:17:12.244Z,19.73
2023-01-11T15:19:41.875Z,29.70
2023-01-11T15:22:31.125Z,28.67
2023-01-11T15:25:01.396Z,25.75
2023-01-11T15:27:36.670Z,24.33
2023-01-11T15:30:06.316Z,25.77
2023-01-11T15:32:35.128Z,21.02
2023-01-11T15:35:28.462Z,25.75
2023-01-11T15:40:36.994Z,27.20
2023-01-11T15:43:07.445Z,28.25
2023-01-11T15:46:03.821Z,22.63
2023-01-11T15:48:42.049Z,20.25
2023-01-11T15:51:25.064Z,22.13
2023-01-11T15:54:11.084Z,21.63
2023-01-11T15:57:07.868Z,23.95
2023-01-11T15:59:56.889Z,21.92
2023-01-11T16:02:47.416Z,19.67
2023-01-11T16:05:27.382Z,26.45
2023-01-11T16:08:19.476Z,25.92
2023-01-11T16:11:10.957Z,27.63
2023-01-11T16:13:44.876Z,20.90
2023-01-11T16:16:29.241Z,23.20
2023-01-11T16:19:01.935Z,23.05
2023-01-11T16:21:40.257Z,25.00
2023-01-11T16:24:15.568Z,23.48
2023-01-11T16:26:43.074Z,26.60
2023-01-11T16:29:23.681Z,25.02
2023-01-11T16:32:02.789Z,25.95
2023-01-11T16:34:39.562Z,24.35
2023-01-11T16:37:40.906Z,22.52
2023-01-11T16:40:24.644Z,30.33
2023-01-11T16:43:00.683Z,19.75
2023-01-11T16:45:46.426Z,28.98
2023-01-11T16:48:21.270Z,21.55
2023-01-11T16:51:03.663Z,28.42
2023-01-11T16:53:32.549Z,28.73
2023-01-11T16:56:16.088Z,33.25
2023-01-11T16:58:43.474Z,20.65
2023-01-11T17:01:15.432Z,27.10
2023-01-11T17:03:51.155Z,24.13
2023-01-11T17:06:20.319Z,24.00
2023-01-11T17:08:50.815Z,25.33
2023-01-11T17:11:31.064Z,23.75
2023-01-11T17:14:15.977Z,24.95
2023-01-11T17:16:55.154Z,29.33
2023-01-11T17:19:25.392Z,27.15
2023-01-11T17:21:54.965Z,21.35
2023-01-11T17:24:25.839Z,20.83
2023-01-11T17:26:59.556Z,27.60
2023-01-11T17:29:33.894Z,27.88
2023-01-11T17:32:03.616Z,19.80
2023-01-11T17:34:34.900Z,24.08
2023-01-11T17:37:10.648Z,31.20
2023-01-11T17:39:53.750Z,23.98
2023-01-11T17:45:22.150Z,22.33
2023-01-11T17:47:51.731Z,23.83
2023-01-11T17:50:29.264Z,30.33
2023-01-11T17:53:13.803Z,30.05
2023-01-11T17:56:30.475Z,29.92
2023-01-11T17:59:18.813Z,26.05
2023-01-11T18:01:51.789Z,33.80
2023-01-11T18:06:49.101Z,25.98
2023-01-11T18:09:29.280Z,27.88
2023-01-11T18:12:28.235Z,29.27
2023-01-11T18:15:01.123Z,29.63
2023-01-11T18:20:15.829Z,35.13
2023-01-11T18:22:58.743Z,28.20
2023-01-11T18:25:29.686Z,23.20
2023-01-11T18:28:12.398Z,26.80
2023-01-11T18:30:41.716Z,33.90
2023-01-11T18:33:16.198Z,24.67
2023-01-11T18:35:45.078Z,25.85
2023-01-11T18:38:20.297Z,18.05
2023-01-11T18:40:49.391Z,29.77
2023-01-11T18:43:21.681Z,31.15
2023-01-11T18:45:49.046Z,21.15
2023-01-11T18:48:16.698Z,24.77
2023-01-11T18:50:45.412Z,33.13
2023-01-11T18:53:17.057Z,28.98
2023-01-11T18:55:45.677Z,26.75
2023-01-11T18:58:13.237Z,34.53
2023-01-11T19:00:41.702Z,24.15
2023-01-11T19:03:10.892Z,24.02
2023-01-11T19:05:38.413Z,29.00
2023-01-11T19:08:07.855Z,23.33
2023-01-11T19:10:36.941Z,33.40
2023-01-11T19:13:04.568Z,24.65
2023-01-11T19:15:36.100Z,29.10
2023-01-11T19:18:04.735Z,30.25
2023-01-11T19:20:33.507Z,37.90
2023-01-11T19:23:01.452Z,32.22
2023-01-11T19:25:29.656Z,36.88
2023-01-11T19:27:57.111Z,36.95
2023-01-11T19:30:24.971Z,36.65
2023-01-11T19:32:53.685Z,32.30
2023-01-11T19:35:24.310Z,26.90
2023-01-11T19:38:06.387Z,35.10
2023-01-11T19:40:34.073Z,36.28
2023-01-11T19:43:01.986Z,40.45
2023-01-11T19:45:30.131Z,32.22
2023-01-11T19:47:59.529Z,33.90
2023-01-11T19:50:27.067Z,27.70
2023-01-11T19:52:54.938Z,29.92
2023-01-11T19:55:23.294Z,32.08
2023-01-11T19:57:51.357Z,25.27
2023-01-11T20:00:22.220Z,42.47
2023-01-11T20:02:49.877Z,38.83
2023-01-11T20:05:17.618Z,33.38
2023-01-11T20:07:45.091Z,29.83
2023-01-11T20:10:16.927Z,30.35
2023-01-11T20:12:49.115Z,29.23
2023-01-11T20:15:17.818Z,32.40
2023-01-11T20:18:10.671Z,33.97
2023-01-11T20:20:44.979Z,26.27
2023-01-11T20:23:22.813Z,35.88
2023-01-11T20:25:52.103Z,32.88
2023-01-11T20:31:08.840Z,25.42
2023-01-11T20:33:39.666Z,27.55
2023-01-11T20:36:23.426Z,27.42
2023-01-11T20:38:51.537Z,27.67
2023-01-11T20:41:41.836Z,28.00
2023-01-11T20:44:11.562Z,21.83
2023-01-11T20:46:42.873Z,24.48
2023-01-11T20:51:53.102Z,26.50
2023-01-11T20:54:25.355Z,30.13
2023-01-11T20:56:52.824Z,28.50
2023-01-11T20:59:22.013Z,25.27
2023-01-11T21:01:53.295Z,27.70
2023-01-11T21:04:20.816Z,25.30
2023-01-11T21:06:49.134Z,24.60
2023-01-11T21:09:18.568Z,27.20
2023-01-11T21:11:54.088Z,23.67
2023-01-11T21:14:23.058Z,20.02
2023-01-11T21:16:50.982Z,25.73
2023-01-11T21:19:18.862Z,22.45
2023-01-11T21:21:49.016Z,22.25
2023-01-11T21:24:17.210Z,27.20
2023-01-11T21:26:46.045Z,26.73
2023-01-11T21:29:14.169Z,22.92
2023-01-11T21:31:42.310Z,20.60
2023-01-11T21:34:12.053Z,26.48
2023-01-11T21:36:40.390Z,19.08
2023-01-11T21:39:10.129Z,35.65
2023-01-11T21:41:57.704Z,26.77
2023-01-11T21:44:33.968Z,28.63
2023-01-11T21:47:04.350Z,24.30
2023-01-11T21:49:33.653Z,22.52
2023-01-11T21:52:01.285Z,30.67
2023-01-11T21:54:28.763Z,20.48
2023-01-11T21:56:56.287Z,16.70
2023-01-11T21:59:24.518Z,31.45
2023-01-11T22:01:52.255Z,19.67
2023-01-11T22:04:31.546Z,21.13
2023-01-11T22:07:00.213Z,25.35
2023-01-11T22:09:28.587Z,22.80
2023-01-11T22:11:56.066Z,17.73
2023-01-11T22:14:24.726Z,16.30
2023-01-11T22:16:52.844Z,17.45
2023-01-11T22:19:21.296Z,17.83
2023-01-11T22:21:49.689Z,21.63
2023-01-11T22:24:17.945Z,24.08
2023-01-11T22:26:46.000Z,17.05
2023-01-11T22:29:17.209Z,20.52
2023-01-11T22:31:47.044Z,18.95
2023-01-11T22:34:15.496Z,19.63
2023-01-11T22:36:43.883Z,23.75
2023-01-11T22:39:12.981Z,23.42
2023-01-11T22:41:41.598Z,20.30
2023-01-11T22:44:09.832Z,20.80
2023-01-11T22:46:37.544Z,22.73
2023-01-11T22:49:06.301Z,23.45
2023-01-11T22:51:34.348Z,17.95
2023-01-11T22:54:02.640Z,16.23
2023-01-11T22:56:30.279Z,18.15
2023-01-11T22:58:59.063Z,21.98
2023-01-11T23:01:32.585Z,20.42
2023-01-11T23:04:00.814Z,18.58
2023-01-11T23:06:30.709Z,22.75
2023-01-11T23:08:58.684Z,20.08
2023-01-11T23:12:09.181Z,22.95
2023-01-11T23:14:39.347Z,23.58
2023-01-11T23:17:08.425Z,16.55
2023-01-11T23:19:37.921Z,17.77
2023-01-11T23:22:06.539Z,22.80
2023-01-11T23:24:35.363Z,26.52
2023-01-11T23:27:03.354Z,20.77
2023-01-11T23:29:31.059Z,30.02
2023-01-11T23:31:58.868Z,23.88
2023-01-11T23:34:26.520Z,16.15
2023-01-11T23:36:54.187Z,25.27
2023-01-11T23:39:23.980Z,21.40
2023-01-11T23:42:10.442Z,25.83
2023-01-11T23:44:40.176Z,25.88
2023-01-11T23:47:21.627Z,29.70
2023-01-11T23:49:51.053Z,35.03
2023-01-11T23:52:20.166Z,25.27
2023-01-11T23:54:49.519Z,33.95
2023-01-11T23:57:18.534Z,35.60
2023-01-11T23:59:47.810Z,38.97
